Beale Air Force Base
KBAB : now visible

Airfield :











YOU CAN JOIN US ON...

 
LOGIN :

Register | Disclaimer

   EN    FR    IT 

 









Legend :    VFR   Marginal VFR   IFR   Intensive IFR   Very Intensive IFR
Visi :
Ceiling :
>= 8 km
>= 3000ft
5 to 8 km
1000 to 3000 ft
1500m to 5 km
500 to 1000 ft
800 to 1500m
200 to 500 ft
< 800m
< 200 ft
Symbols :   Thunderstorms  Fog  Heavy snow  Heavy precipitations  Wind > 20 kt







- Airport Elevation : 113 ft


KBAB - Beale Air Force Base

CURRENT METAR :
  • 181758Z 17012G19KT 10SM OVC011 19/16 A2992 RMK AO2A SLP134 60003 T01940160 10194 20158 50005 $

EXPIRED METARs :
  • 181658Z 14012KT 9SM BKN011 OVC090 19/17 A2991 RMK AO2A SLP131 T01870165 $
  • 181643Z 13015KT 9SM FEW009 BKN013 OVC090 18/16 A2991 RMK AO2A SLP131 $
  • 181628Z 13014KT 10SM SCT013 SCT021 BKN075 BKN090 17/16 A2991 RMK AO2A SLP131 $
  • 181558Z 14014KT 10SM SCT015 BKN028 BKN060 OVC070 17/15 A2991 RMK AO2A DZE1458RAB1458E08DZB08E09RAB19E29DZB29E31 SLP131 P0001 T01680150 $
  • 181531Z 14013KT 9SM FEW017 FEW038 OVC060 16/15 A2991 RMK AO2A DZE1458RAB1458E08DZB08E09RAB19E29DZB29E31 SLP131 $
  • 181519Z 13012KT 7SM -RA SCT038 OVC060 16/15 A2991 RMK AO2A DZE1458RAB1458E08DZB08E09RAB19 SLP131 $
  • 181509Z 14012KT 7SM FEW037 OVC060 16/14 A2990 RMK AO2A DZE1458RAB1458E08DZB08E09 SLP128 $

TAF AMD TAF KBAB
Valid from the 18 at 17:00 until the 19 at 17:00 UTC


181710Z 1817/1917 15010G15KT 9999 BKN011 BKN030 BKN060 QNH2990INS
TEMPO 1817/1821 8000 -SHRA
TEMPO 1821/1901 28012G25KT 6000 -TSRA BKN020CB
BECMG 1900/1901 17009KT 9999 SCT030 BKN070 QNH2985INS
BECMG 1903/1904 04006KT 9999 SCT040 SCT080 QNH2987INS TX24/1823Z TN18/1817Z
No reported NOTAMs for that airfield.



MET'MAP, your aeronautical weather chart ! - Copyright ORBIFLY December 2007 - Disclaimer

ORBIFLY MET'MAP TEAM :

Programming & Development : Alexandra Zaïnal
Concept & Development : Baudouin d'Aumeries
Co-Development & Prog : Marc-Olivier Méhu
Technical & hardware support : Manuel Goepfert

Contact : metmap@orbifly.com




SOURCES & CREDITS :

   NOAA       Earth
Advisory